sensor_id;sensor_type;location;lat;lon;timestamp;pressure;altitude;pressure_sealevel;temperature;humidity
79707;BME280;69200;53.612;-2.416;2023-11-22T00:00:09;101323.84;;;5.97;100.00
79707;BME280;69200;53.612;-2.416;2023-11-22T00:02:35;101327.38;;;5.89;100.00
79707;BME280;69200;53.612;-2.416;2023-11-22T00:05:00;101311.50;;;6.10;100.00
79707;BME280;69200;53.612;-2.416;2023-11-22T00:07:26;101311.47;;;6.19;100.00
79707;BME280;69200;53.612;-2.416;2023-11-22T00:09:55;101312.56;;;5.93;100.00
79707;BME280;69200;53.612;-2.416;2023-11-22T00:12:21;101308.38;;;5.74;100.00
79707;BME280;69200;53.612;-2.416;2023-11-22T00:14:48;101305.38;;;5.61;100.00
79707;BME280;69200;53.612;-2.416;2023-11-22T00:17:14;101294.69;;;5.20;100.00
79707;BME280;69200;53.612;-2.416;2023-11-22T00:19:43;101290.00;;;5.06;100.00
79707;BME280;69200;53.612;-2.416;2023-11-22T00:22:09;101293.34;;;5.16;100.00
79707;BME280;69200;53.612;-2.416;2023-11-22T00:24:41;101294.16;;;5.41;100.00
79707;BME280;69200;53.612;-2.416;2023-11-22T00:27:07;101303.03;;;5.66;100.00
79707;BME280;69200;53.612;-2.416;2023-11-22T00:29:33;101303.53;;;5.70;100.00
79707;BME280;69200;53.612;-2.416;2023-11-22T00:31:58;101292.47;;;5.40;100.00
79707;BME280;69200;53.612;-2.416;2023-11-22T00:34:25;101290.44;;;5.50;100.00
79707;BME280;69200;53.612;-2.416;2023-11-22T00:36:50;101298.88;;;5.47;100.00
79707;BME280;69200;53.612;-2.416;2023-11-22T00:39:16;101291.13;;;5.36;100.00
79707;BME280;69200;53.612;-2.416;2023-11-22T00:41:42;101291.25;;;5.59;100.00
79707;BME280;69200;53.612;-2.416;2023-11-22T00:44:07;101286.88;;;5.58;100.00
79707;BME280;69200;53.612;-2.416;2023-11-22T00:46:33;101287.03;;;5.65;100.00
79707;BME280;69200;53.612;-2.416;2023-11-22T00:48:58;101280.03;;;5.47;100.00
79707;BME280;69200;53.612;-2.416;2023-11-22T00:51:24;101287.31;;;5.86;100.00
79707;BME280;69200;53.612;-2.416;2023-11-22T00:53:49;101288.75;;;6.13;100.00
79707;BME280;69200;53.612;-2.416;2023-11-22T00:56:16;101286.63;;;5.92;100.00
79707;BME280;69200;53.612;-2.416;2023-11-22T00:58:42;101277.47;;;6.09;100.00
79707;BME280;69200;53.612;-2.416;2023-11-22T01:01:08;101277.03;;;5.89;100.00
79707;BME280;69200;53.612;-2.416;2023-11-22T01:03:33;101277.09;;;5.65;100.00
79707;BME280;69200;53.612;-2.416;2023-11-22T01:05:59;101273.78;;;5.55;100.00
79707;BME280;69200;53.612;-2.416;2023-11-22T01:08:24;101270.84;;;5.73;100.00
79707;BME280;69200;53.612;-2.416;2023-11-22T01:10:50;101270.75;;;5.50;100.00
79707;BME280;69200;53.612;-2.416;2023-11-22T01:13:15;101273.66;;;5.87;100.00
79707;BME280;69200;53.612;-2.416;2023-11-22T01:15:41;101261.13;;;6.11;100.00
79707;BME280;69200;53.612;-2.416;2023-11-22T01:18:07;101266.72;;;6.01;100.00
79707;BME280;69200;53.612;-2.416;2023-11-22T01:20:32;101272.28;;;6.31;100.00
79707;BME280;69200;53.612;-2.416;2023-11-22T01:22:58;101256.44;;;6.05;100.00
79707;BME280;69200;53.612;-2.416;2023-11-22T01:25:23;101252.38;;;6.09;100.00
79707;BME280;69200;53.612;-2.416;2023-11-22T01:27:49;101241.25;;;6.12;100.00
79707;BME280;69200;53.612;-2.416;2023-11-22T01:30:14;101232.56;;;6.25;100.00
79707;BME280;69200;53.612;-2.416;2023-11-22T01:32:40;101234.22;;;6.34;100.00
79707;BME280;69200;53.612;-2.416;2023-11-22T01:35:05;101230.59;;;6.41;100.00
79707;BME280;69200;53.612;-2.416;2023-11-22T01:37:31;101230.25;;;6.44;100.00
79707;BME280;69200;53.612;-2.416;2023-11-22T01:39:57;101226.91;;;6.42;100.00
79707;BME280;69200;53.612;-2.416;2023-11-22T01:42:23;101234.69;;;6.37;100.00
79707;BME280;69200;53.612;-2.416;2023-11-22T01:44:49;101220.84;;;6.40;100.00
79707;BME280;69200;53.612;-2.416;2023-11-22T01:47:15;101234.31;;;6.40;100.00
79707;BME280;69200;53.612;-2.416;2023-11-22T01:49:40;101227.56;;;6.44;100.00
79707;BME280;69200;53.612;-2.416;2023-11-22T01:52:06;101224.50;;;6.48;100.00
79707;BME280;69200;53.612;-2.416;2023-11-22T01:54:32;101227.84;;;6.50;100.00
79707;BME280;69200;53.612;-2.416;2023-11-22T01:56:58;101224.56;;;6.39;100.00
79707;BME280;69200;53.612;-2.416;2023-11-22T01:59:25;101222.94;;;6.53;100.00
79707;BME280;69200;53.612;-2.416;2023-11-22T02:01:53;101215.69;;;6.54;100.00
79707;BME280;69200;53.612;-2.416;2023-11-22T02:04:19;101226.84;;;6.51;100.00
79707;BME280;69200;53.612;-2.416;2023-11-22T02:06:46;101218.09;;;6.49;100.00
79707;BME280;69200;53.612;-2.416;2023-11-22T02:09:11;101211.16;;;6.54;100.00
79707;BME280;69200;53.612;-2.416;2023-11-22T02:11:43;101214.34;;;6.58;100.00
79707;BME280;69200;53.612;-2.416;2023-11-22T02:14:11;101223.78;;;6.31;100.00
79707;BME280;69200;53.612;-2.416;2023-11-22T02:16:37;101234.28;;;6.17;100.00
79707;BME280;69200;53.612;-2.416;2023-11-22T02:19:03;101228.84;;;6.03;100.00
79707;BME280;69200;53.612;-2.416;2023-11-22T02:21:30;101218.13;;;6.17;100.00
79707;BME280;69200;53.612;-2.416;2023-11-22T02:23:55;101212.41;;;6.21;100.00
79707;BME280;69200;53.612;-2.416;2023-11-22T02:26:21;101224.00;;;6.21;100.00
79707;BME280;69200;53.612;-2.416;2023-11-22T02:28:46;101224.13;;;6.05;100.00
79707;BME280;69200;53.612;-2.416;2023-11-22T02:31:13;101226.63;;;6.06;100.00
79707;BME280;69200;53.612;-2.416;2023-11-22T02:33:38;101222.22;;;6.13;100.00
79707;BME280;69200;53.612;-2.416;2023-11-22T02:36:05;101229.22;;;6.23;100.00
79707;BME280;69200;53.612;-2.416;2023-11-22T02:38:31;101220.22;;;6.07;100.00
79707;BME280;69200;53.612;-2.416;2023-11-22T02:40:56;101211.38;;;5.91;100.00
79707;BME280;69200;53.612;-2.416;2023-11-22T02:43:22;101218.28;;;5.85;100.00
79707;BME280;69200;53.612;-2.416;2023-11-22T02:45:48;101213.91;;;5.84;100.00
79707;BME280;69200;53.612;-2.416;2023-11-22T02:48:13;101201.94;;;5.95;100.00
79707;BME280;69200;53.612;-2.416;2023-11-22T02:50:39;101212.06;;;5.84;100.00
79707;BME280;69200;53.612;-2.416;2023-11-22T02:53:04;101199.41;;;5.93;100.00
79707;BME280;69200;53.612;-2.416;2023-11-22T02:55:30;101202.09;;;5.93;100.00
79707;BME280;69200;53.612;-2.416;2023-11-22T02:57:55;101191.97;;;6.03;100.00
79707;BME280;69200;53.612;-2.416;2023-11-22T03:00:21;101193.50;;;5.98;100.00
79707;BME280;69200;53.612;-2.416;2023-11-22T03:02:47;101187.53;;;6.10;100.00
79707;BME280;69200;53.612;-2.416;2023-11-22T03:05:13;101191.00;;;5.96;100.00
79707;BME280;69200;53.612;-2.416;2023-11-22T03:07:40;101207.94;;;6.05;100.00
79707;BME280;69200;53.612;-2.416;2023-11-22T03:10:07;101211.00;;;6.02;100.00
79707;BME280;69200;53.612;-2.416;2023-11-22T03:12:34;101204.88;;;6.08;100.00
79707;BME280;69200;53.612;-2.416;2023-11-22T03:14:59;101200.00;;;6.11;100.00
79707;BME280;69200;53.612;-2.416;2023-11-22T03:17:28;101197.72;;;6.23;100.00
79707;BME280;69200;53.612;-2.416;2023-11-22T03:19:54;101199.63;;;6.14;100.00
79707;BME280;69200;53.612;-2.416;2023-11-22T03:22:21;101192.16;;;6.25;100.00
79707;BME280;69200;53.612;-2.416;2023-11-22T03:24:46;101212.28;;;6.37;100.00
79707;BME280;69200;53.612;-2.416;2023-11-22T03:27:12;101200.47;;;6.15;100.00
79707;BME280;69200;53.612;-2.416;2023-11-22T03:29:38;101186.69;;;6.33;100.00
79707;BME280;69200;53.612;-2.416;2023-11-22T03:32:03;101184.44;;;6.44;100.00
79707;BME280;69200;53.612;-2.416;2023-11-22T03:34:29;101178.84;;;6.46;100.00
79707;BME280;69200;53.612;-2.416;2023-11-22T03:36:54;101178.84;;;6.46;100.00
79707;BME280;69200;53.612;-2.416;2023-11-22T03:39:19;101172.03;;;6.35;100.00
79707;BME280;69200;53.612;-2.416;2023-11-22T03:41:45;101170.66;;;6.39;100.00
79707;BME280;69200;53.612;-2.416;2023-11-22T03:44:11;101184.44;;;6.22;100.00
79707;BME280;69200;53.612;-2.416;2023-11-22T03:46:37;101182.13;;;6.33;100.00
79707;BME280;69200;53.612;-2.416;2023-11-22T03:49:05;101182.81;;;6.35;100.00
79707;BME280;69200;53.612;-2.416;2023-11-22T03:51:38;101186.22;;;6.29;100.00
79707;BME280;69200;53.612;-2.416;2023-11-22T03:54:04;101176.81;;;6.25;100.00
79707;BME280;69200;53.612;-2.416;2023-11-22T03:56:30;101176.53;;;6.20;100.00
79707;BME280;69200;53.612;-2.416;2023-11-22T03:58:55;101174.13;;;6.25;100.00
79707;BME280;69200;53.612;-2.416;2023-11-22T04:01:21;101165.44;;;6.38;100.00
79707;BME280;69200;53.612;-2.416;2023-11-22T04:03:47;101162.34;;;6.26;100.00
79707;BME280;69200;53.612;-2.416;2023-11-22T04:06:16;101152.84;;;6.30;100.00
79707;BME280;69200;53.612;-2.416;2023-11-22T04:08:45;101149.72;;;6.41;100.00
79707;BME280;69200;53.612;-2.416;2023-11-22T04:11:13;101146.03;;;6.42;100.00
79707;BME280;69200;53.612;-2.416;2023-11-22T04:13:39;101130.06;;;6.56;100.00
79707;BME280;69200;53.612;-2.416;2023-11-22T04:16:06;101126.81;;;6.60;100.00
79707;BME280;69200;53.612;-2.416;2023-11-22T04:18:37;101132.34;;;6.67;100.00
79707;BME280;69200;53.612;-2.416;2023-11-22T04:21:03;101130.25;;;6.54;100.00
79707;BME280;69200;53.612;-2.416;2023-11-22T04:23:30;101125.38;;;6.50;100.00
79707;BME280;69200;53.612;-2.416;2023-11-22T04:25:56;101135.72;;;6.46;100.00
79707;BME280;69200;53.612;-2.416;2023-11-22T04:28:23;101135.41;;;6.41;100.00
79707;BME280;69200;53.612;-2.416;2023-11-22T04:30:49;101128.59;;;6.30;100.00
79707;BME280;69200;53.612;-2.416;2023-11-22T04:33:14;101117.38;;;6.41;100.00
79707;BME280;69200;53.612;-2.416;2023-11-22T04:35:39;101131.56;;;6.21;100.00
79707;BME280;69200;53.612;-2.416;2023-11-22T04:38:06;101128.53;;;6.15;100.00
79707;BME280;69200;53.612;-2.416;2023-11-22T04:40:32;101126.03;;;6.14;100.00
79707;BME280;69200;53.612;-2.416;2023-11-22T04:42:57;101136.81;;;6.14;100.00
79707;BME280;69200;53.612;-2.416;2023-11-22T04:45:23;101122.81;;;6.19;100.00
79707;BME280;69200;53.612;-2.416;2023-11-22T04:47:48;101123.53;;;6.12;100.00
79707;BME280;69200;53.612;-2.416;2023-11-22T04:50:13;101138.91;;;6.04;100.00
79707;BME280;69200;53.612;-2.416;2023-11-22T04:52:39;101139.31;;;5.93;100.00
79707;BME280;69200;53.612;-2.416;2023-11-22T04:55:05;101142.84;;;6.16;100.00
79707;BME280;69200;53.612;-2.416;2023-11-22T04:57:30;101131.78;;;6.34;100.00
79707;BME280;69200;53.612;-2.416;2023-11-22T04:59:55;101135.47;;;6.33;100.00
79707;BME280;69200;53.612;-2.416;2023-11-22T05:02:22;101140.22;;;6.31;100.00
79707;BME280;69200;53.612;-2.416;2023-11-22T05:04:47;101129.59;;;6.52;100.00
79707;BME280;69200;53.612;-2.416;2023-11-22T05:07:14;101131.72;;;6.57;100.00
79707;BME280;69200;53.612;-2.416;2023-11-22T05:09:40;101131.66;;;6.65;100.00
79707;BME280;69200;53.612;-2.416;2023-11-22T05:12:06;101134.34;;;6.65;100.00
79707;BME280;69200;53.612;-2.416;2023-11-22T05:14:31;101140.81;;;6.79;100.00
79707;BME280;69200;53.612;-2.416;2023-11-22T05:16:57;101129.81;;;6.80;100.00
79707;BME280;69200;53.612;-2.416;2023-11-22T05:19:22;101125.09;;;6.97;100.00
79707;BME280;69200;53.612;-2.416;2023-11-22T05:21:48;101117.47;;;6.86;100.00
79707;BME280;69200;53.612;-2.416;2023-11-22T05:24:13;101126.41;;;6.86;100.00
79707;BME280;69200;53.612;-2.416;2023-11-22T05:26:40;101106.88;;;6.84;100.00
79707;BME280;69200;53.612;-2.416;2023-11-22T05:29:05;101113.19;;;6.91;100.00
79707;BME280;69200;53.612;-2.416;2023-11-22T05:31:31;101106.41;;;6.95;100.00
79707;BME280;69200;53.612;-2.416;2023-11-22T05:33:56;101100.63;;;6.31;99.39
79707;BME280;69200;53.612;-2.416;2023-11-22T05:36:21;101107.75;;;6.01;100.00
79707;BME280;69200;53.612;-2.416;2023-11-22T05:38:47;101102.56;;;5.69;100.00
79707;BME280;69200;53.612;-2.416;2023-11-22T05:41:12;101105.72;;;5.49;100.00
79707;BME280;69200;53.612;-2.416;2023-11-22T05:43:37;101115.56;;;5.65;100.00
79707;BME280;69200;53.612;-2.416;2023-11-22T05:46:04;101108.63;;;5.40;100.00
79707;BME280;69200;53.612;-2.416;2023-11-22T05:48:29;101119.06;;;5.34;100.00
79707;BME280;69200;53.612;-2.416;2023-11-22T05:50:55;101132.56;;;5.26;100.00
79707;BME280;69200;53.612;-2.416;2023-11-22T05:53:20;101130.88;;;5.25;100.00
79707;BME280;69200;53.612;-2.416;2023-11-22T05:55:47;101132.56;;;5.26;100.00
79707;BME280;69200;53.612;-2.416;2023-11-22T05:58:15;101138.78;;;5.27;100.00
79707;BME280;69200;53.612;-2.416;2023-11-22T06:00:45;101131.09;;;5.55;100.00
79707;BME280;69200;53.612;-2.416;2023-11-22T06:03:11;101141.53;;;5.50;100.00
79707;BME280;69200;53.612;-2.416;2023-11-22T06:05:36;101143.34;;;5.97;100.00
79707;BME280;69200;53.612;-2.416;2023-11-22T06:08:02;101123.72;;;5.80;100.00
79707;BME280;69200;53.612;-2.416;2023-11-22T06:10:27;101113.34;;;6.00;100.00
79707;BME280;69200;53.612;-2.416;2023-11-22T06:12:53;101090.22;;;6.28;100.00
79707;BME280;69200;53.612;-2.416;2023-11-22T06:15:18;101098.72;;;6.55;100.00
79707;BME280;69200;53.612;-2.416;2023-11-22T06:17:46;101098.91;;;6.53;100.00
79707;BME280;69200;53.612;-2.416;2023-11-22T06:20:13;101104.78;;;6.57;100.00
79707;BME280;69200;53.612;-2.416;2023-11-22T06:22:39;101105.19;;;6.31;100.00
79707;BME280;69200;53.612;-2.416;2023-11-22T06:27:33;101105.19;;;6.68;100.00
79707;BME280;69200;53.612;-2.416;2023-11-22T06:29:58;101099.13;;;6.66;100.00
79707;BME280;69200;53.612;-2.416;2023-11-22T06:32:24;101105.72;;;6.64;100.00
79707;BME280;69200;53.612;-2.416;2023-11-22T06:34:49;101108.22;;;6.65;100.00
79707;BME280;69200;53.612;-2.416;2023-11-22T06:37:14;101111.03;;;6.72;100.00
79707;BME280;69200;53.612;-2.416;2023-11-22T06:39:40;101119.03;;;6.80;100.00
79707;BME280;69200;53.612;-2.416;2023-11-22T06:42:05;101126.78;;;6.83;100.00
79707;BME280;69200;53.612;-2.416;2023-11-22T06:44:31;101128.44;;;6.84;100.00
79707;BME280;69200;53.612;-2.416;2023-11-22T06:46:57;101118.50;;;6.99;100.00
79707;BME280;69200;53.612;-2.416;2023-11-22T06:49:22;101107.97;;;7.05;100.00
79707;BME280;69200;53.612;-2.416;2023-11-22T06:51:48;101104.91;;;7.08;100.00
79707;BME280;69200;53.612;-2.416;2023-11-22T06:54:13;101112.00;;;7.09;100.00
79707;BME280;69200;53.612;-2.416;2023-11-22T06:56:38;101108.16;;;7.03;100.00
79707;BME280;69200;53.612;-2.416;2023-11-22T06:59:04;101090.94;;;7.04;100.00
79707;BME280;69200;53.612;-2.416;2023-11-22T07:01:29;101094.84;;;6.87;100.00
79707;BME280;69200;53.612;-2.416;2023-11-22T07:03:55;101094.66;;;6.88;100.00
79707;BME280;69200;53.612;-2.416;2023-11-22T07:06:20;101092.91;;;6.81;100.00
79707;BME280;69200;53.612;-2.416;2023-11-22T07:08:48;101084.91;;;6.87;100.00
79707;BME280;69200;53.612;-2.416;2023-11-22T07:11:21;101081.69;;;6.39;100.00
79707;BME280;69200;53.612;-2.416;2023-11-22T07:13:47;101090.59;;;6.02;100.00
79707;BME280;69200;53.612;-2.416;2023-11-22T07:16:13;101085.22;;;6.02;100.00
79707;BME280;69200;53.612;-2.416;2023-11-22T07:18:40;101079.09;;;6.08;100.00
79707;BME280;69200;53.612;-2.416;2023-11-22T07:21:05;101070.66;;;6.11;100.00
79707;BME280;69200;53.612;-2.416;2023-11-22T07:23:31;101080.38;;;6.35;100.00
79707;BME280;69200;53.612;-2.416;2023-11-22T07:25:56;101075.25;;;6.40;100.00
79707;BME280;69200;53.612;-2.416;2023-11-22T07:28:22;101062.72;;;6.48;100.00
79707;BME280;69200;53.612;-2.416;2023-11-22T07:30:47;101068.16;;;6.62;100.00
79707;BME280;69200;53.612;-2.416;2023-11-22T07:33:14;101071.69;;;6.63;100.00
79707;BME280;69200;53.612;-2.416;2023-11-22T07:35:42;101092.72;;;6.67;100.00
79707;BME280;69200;53.612;-2.416;2023-11-22T07:38:08;101098.75;;;6.69;100.00
79707;BME280;69200;53.612;-2.416;2023-11-22T07:40:35;101083.97;;;6.80;100.00
79707;BME280;69200;53.612;-2.416;2023-11-22T07:43:02;101088.63;;;6.86;100.00
79707;BME280;69200;53.612;-2.416;2023-11-22T07:45:32;101082.31;;;6.94;100.00
79707;BME280;69200;53.612;-2.416;2023-11-22T07:47:58;101087.13;;;6.69;100.00
79707;BME280;69200;53.612;-2.416;2023-11-22T07:50:25;101088.09;;;6.91;100.00
79707;BME280;69200;53.612;-2.416;2023-11-22T07:52:51;101073.81;;;6.97;100.00
79707;BME280;69200;53.612;-2.416;2023-11-22T07:55:16;101073.19;;;6.95;100.00
79707;BME280;69200;53.612;-2.416;2023-11-22T07:57:44;101068.38;;;6.90;100.00
79707;BME280;69200;53.612;-2.416;2023-11-22T08:00:09;101057.28;;;6.85;100.00
79707;BME280;69200;53.612;-2.416;2023-11-22T08:02:36;101070.03;;;6.77;100.00
79707;BME280;69200;53.612;-2.416;2023-11-22T08:05:04;101072.44;;;6.86;100.00
79707;BME280;69200;53.612;-2.416;2023-11-22T08:07:34;101062.38;;;6.80;100.00
79707;BME280;69200;53.612;-2.416;2023-11-22T08:09:59;101059.25;;;6.77;100.00
79707;BME280;69200;53.612;-2.416;2023-11-22T08:12:34;101052.91;;;6.69;100.00
79707;BME280;69200;53.612;-2.416;2023-11-22T08:14:59;101043.41;;;6.73;100.00
79707;BME280;69200;53.612;-2.416;2023-11-22T08:17:25;101057.94;;;6.58;100.00
79707;BME280;69200;53.612;-2.416;2023-11-22T08:19:50;101057.91;;;6.72;100.00
79707;BME280;69200;53.612;-2.416;2023-11-22T08:22:15;101068.97;;;6.63;100.00
79707;BME280;69200;53.612;-2.416;2023-11-22T08:24:41;101062.78;;;6.77;100.00
79707;BME280;69200;53.612;-2.416;2023-11-22T08:27:06;101047.88;;;6.81;100.00
79707;BME280;69200;53.612;-2.416;2023-11-22T08:29:32;101047.13;;;6.87;100.00
79707;BME280;69200;53.612;-2.416;2023-11-22T08:31:58;101034.38;;;6.81;100.00
79707;BME280;69200;53.612;-2.416;2023-11-22T08:34:23;101046.19;;;6.80;100.00
79707;BME280;69200;53.612;-2.416;2023-11-22T08:36:48;101056.06;;;6.88;100.00
79707;BME280;69200;53.612;-2.416;2023-11-22T08:39:14;101072.25;;;7.03;100.00
79707;BME280;69200;53.612;-2.416;2023-11-22T08:41:39;101077.25;;;7.06;100.00
79707;BME280;69200;53.612;-2.416;2023-11-22T08:44:05;101056.78;;;7.11;100.00
79707;BME280;69200;53.612;-2.416;2023-11-22T08:46:31;101066.66;;;7.04;100.00
79707;BME280;69200;53.612;-2.416;2023-11-22T08:48:57;101063.31;;;7.17;100.00
79707;BME280;69200;53.612;-2.416;2023-11-22T08:51:23;101064.06;;;7.11;100.00
79707;BME280;69200;53.612;-2.416;2023-11-22T08:53:48;101060.72;;;7.09;100.00
79707;BME280;69200;53.612;-2.416;2023-11-22T08:56:14;101064.25;;;7.09;100.00
79707;BME280;69200;53.612;-2.416;2023-11-22T08:58:41;101066.94;;;7.09;100.00
79707;BME280;69200;53.612;-2.416;2023-11-22T09:01:08;101078.09;;;7.21;100.00
79707;BME280;69200;53.612;-2.416;2023-11-22T09:03:34;101074.94;;;7.17;100.00
79707;BME280;69200;53.612;-2.416;2023-11-22T09:05:59;101070.66;;;7.23;100.00
79707;BME280;69200;53.612;-2.416;2023-11-22T09:08:25;101051.81;;;7.29;100.00
79707;BME280;69200;53.612;-2.416;2023-11-22T09:10:51;101047.56;;;7.20;100.00
79707;BME280;69200;53.612;-2.416;2023-11-22T09:13:16;101051.09;;;7.21;100.00
79707;BME280;69200;53.612;-2.416;2023-11-22T09:15:45;101047.81;;;7.40;100.00
79707;BME280;69200;53.612;-2.416;2023-11-22T09:18:11;101049.41;;;7.35;100.00
79707;BME280;69200;53.612;-2.416;2023-11-22T09:20:39;101069.06;;;7.28;100.00
79707;BME280;69200;53.612;-2.416;2023-11-22T09:23:05;101057.97;;;7.38;100.00
79707;BME280;69200;53.612;-2.416;2023-11-22T09:25:31;101038.97;;;7.46;100.00
79707;BME280;69200;53.612;-2.416;2023-11-22T09:27:58;101038.09;;;7.46;100.00
79707;BME280;69200;53.612;-2.416;2023-11-22T09:30:31;101047.41;;;7.43;100.00
79707;BME280;69200;53.612;-2.416;2023-11-22T09:33:12;101051.03;;;7.50;100.00
79707;BME280;69200;53.612;-2.416;2023-11-22T09:35:39;101050.16;;;7.65;100.00
79707;BME280;69200;53.612;-2.416;2023-11-22T09:38:07;101039.09;;;7.60;100.00
79707;BME280;69200;53.612;-2.416;2023-11-22T09:40:36;101039.22;;;7.73;100.00
79707;BME280;69200;53.612;-2.416;2023-11-22T09:43:03;101033.63;;;7.74;100.00
79707;BME280;69200;53.612;-2.416;2023-11-22T09:45:29;101040.59;;;7.62;100.00
79707;BME280;69200;53.612;-2.416;2023-11-22T09:47:56;101044.03;;;7.77;100.00
79707;BME280;69200;53.612;-2.416;2023-11-22T09:53:19;101049.00;;;7.74;100.00
79707;BME280;69200;53.612;-2.416;2023-11-22T09:55:48;101036.41;;;7.81;100.00
79707;BME280;69200;53.612;-2.416;2023-11-22T09:58:16;101043.69;;;7.80;100.00
79707;BME280;69200;53.612;-2.416;2023-11-22T10:00:42;101036.41;;;7.81;100.00
79707;BME280;69200;53.612;-2.416;2023-11-22T10:03:09;101052.28;;;7.91;100.00
79707;BME280;69200;53.612;-2.416;2023-11-22T10:05:34;101047.41;;;7.79;100.00
79707;BME280;69200;53.612;-2.416;2023-11-22T10:08:00;101056.09;;;7.75;100.00
79707;BME280;69200;53.612;-2.416;2023-11-22T10:10:26;101057.31;;;7.72;100.00
79707;BME280;69200;53.612;-2.416;2023-11-22T10:12:54;101061.16;;;7.63;100.00
79707;BME280;69200;53.612;-2.416;2023-11-22T10:15:21;101063.28;;;7.68;100.00
79707;BME280;69200;53.612;-2.416;2023-11-22T10:17:58;101056.09;;;7.75;100.00
79707;BME280;69200;53.612;-2.416;2023-11-22T10:23:00;101052.63;;;8.02;100.00
79707;BME280;69200;53.612;-2.416;2023-11-22T10:25:26;101047.22;;;8.02;100.00
79707;BME280;69200;53.612;-2.416;2023-11-22T10:27:51;101051.59;;;8.03;100.00
79707;BME280;69200;53.612;-2.416;2023-11-22T10:30:17;101043.75;;;7.87;100.00
79707;BME280;69200;53.612;-2.416;2023-11-22T10:32:44;101043.88;;;7.79;100.00
79707;BME280;69200;53.612;-2.416;2023-11-22T10:35:10;101053.75;;;7.93;100.00
79707;BME280;69200;53.612;-2.416;2023-11-22T10:37:36;101047.38;;;8.01;100.00
79707;BME280;69200;53.612;-2.416;2023-11-22T10:40:02;101045.06;;;8.19;100.00
79707;BME280;69200;53.612;-2.416;2023-11-22T10:42:31;101042.94;;;8.36;100.00
79707;BME280;69200;53.612;-2.416;2023-11-22T10:44:56;101034.69;;;8.44;100.00
79707;BME280;69200;53.612;-2.416;2023-11-22T10:47:28;101033.28;;;8.55;100.00
79707;BME280;69200;53.612;-2.416;2023-11-22T10:49:55;101026.22;;;8.54;100.00
79707;BME280;69200;53.612;-2.416;2023-11-22T10:52:22;101018.34;;;8.59;100.00
79707;BME280;69200;53.612;-2.416;2023-11-22T10:54:55;101010.66;;;8.62;100.00
79707;BME280;69200;53.612;-2.416;2023-11-22T10:57:26;101019.44;;;8.71;100.00
79707;BME280;69200;53.612;-2.416;2023-11-22T10:59:54;101008.66;;;8.78;100.00
79707;BME280;69200;53.612;-2.416;2023-11-22T11:02:21;101014.28;;;8.76;100.00
79707;BME280;69200;53.612;-2.416;2023-11-22T11:04:59;101010.75;;;8.76;100.00
79707;BME280;69200;53.612;-2.416;2023-11-22T11:07:35;101012.25;;;8.85;100.00
79707;BME280;69200;53.612;-2.416;2023-11-22T11:10:03;101015.53;;;8.80;100.00
79707;BME280;69200;53.612;-2.416;2023-11-22T11:12:28;101011.63;;;8.83;100.00
79707;BME280;69200;53.612;-2.416;2023-11-22T11:14:54;101010.13;;;8.80;100.00
79707;BME280;69200;53.612;-2.416;2023-11-22T11:17:19;101011.16;;;8.79;100.00
79707;BME280;69200;53.612;-2.416;2023-11-22T11:19:46;101006.59;;;8.80;100.00
79707;BME280;69200;53.612;-2.416;2023-11-22T11:22:12;101006.03;;;8.91;100.00
79707;BME280;69200;53.612;-2.416;2023-11-22T11:24:39;101004.16;;;8.91;100.00
79707;BME280;69200;53.612;-2.416;2023-11-22T11:27:06;101006.88;;;8.91;100.00
79707;BME280;69200;53.612;-2.416;2023-11-22T11:29:35;101001.25;;;8.93;100.00
79707;BME280;69200;53.612;-2.416;2023-11-22T11:32:04;101002.34;;;8.99;100.00
79707;BME280;69200;53.612;-2.416;2023-11-22T11:34:47;100992.53;;;9.04;100.00
79707;BME280;69200;53.612;-2.416;2023-11-22T11:37:14;101004.66;;;9.08;100.00
79707;BME280;69200;53.612;-2.416;2023-11-22T11:39:40;100995.06;;;9.12;100.00
79707;BME280;69200;53.612;-2.416;2023-11-22T11:42:12;100984.91;;;9.14;100.00
79707;BME280;69200;53.612;-2.416;2023-11-22T11:47:22;100988.03;;;9.24;100.00
79707;BME280;69200;53.612;-2.416;2023-11-22T11:49:49;100982.59;;;9.18;100.00
79707;BME280;69200;53.612;-2.416;2023-11-22T11:52:15;100986.56;;;9.22;100.00
79707;BME280;69200;53.612;-2.416;2023-11-22T11:54:41;100983.03;;;9.28;100.00
79707;BME280;69200;53.612;-2.416;2023-11-22T11:57:07;100963.06;;;9.22;100.00
79707;BME280;69200;53.612;-2.416;2023-11-22T11:59:33;100968.28;;;9.31;100.00
79707;BME280;69200;53.612;-2.416;2023-11-22T12:02:00;100969.75;;;9.33;100.00
79707;BME280;69200;53.612;-2.416;2023-11-22T12:04:25;100972.25;;;9.35;100.00
79707;BME280;69200;53.612;-2.416;2023-11-22T12:06:51;100960.78;;;9.33;100.00
79707;BME280;69200;53.612;-2.416;2023-11-22T12:09:27;100970.78;;;9.32;100.00
79707;BME280;69200;53.612;-2.416;2023-11-22T12:11:55;100960.97;;;9.38;100.00
79707;BME280;69200;53.612;-2.416;2023-11-22T12:14:22;100959.72;;;9.34;100.00
79707;BME280;69200;53.612;-2.416;2023-11-22T12:16:50;100948.91;;;9.34;100.00
79707;BME280;69200;53.612;-2.416;2023-11-22T12:19:23;100958.28;;;9.38;100.00
79707;BME280;69200;53.612;-2.416;2023-11-22T12:21:49;100949.53;;;9.42;100.00
79707;BME280;69200;53.612;-2.416;2023-11-22T12:24:15;100947.03;;;9.54;100.00
79707;BME280;69200;53.612;-2.416;2023-11-22T12:26:47;100947.25;;;9.46;100.00
79707;BME280;69200;53.612;-2.416;2023-11-22T12:29:17;100933.09;;;9.50;100.00
79707;BME280;69200;53.612;-2.416;2023-11-22T12:31:52;100932.47;;;9.55;100.00
79707;BME280;69200;53.612;-2.416;2023-11-22T12:34:21;100930.78;;;9.54;100.00
79707;BME280;69200;53.612;-2.416;2023-11-22T12:36:47;100929.34;;;9.58;100.00
79707;BME280;69200;53.612;-2.416;2023-11-22T12:39:13;100935.59;;;9.65;100.00
79707;BME280;69200;53.612;-2.416;2023-11-22T12:41:45;100932.28;;;9.63;100.00
79707;BME280;69200;53.612;-2.416;2023-11-22T12:44:11;100928.31;;;9.66;100.00
79707;BME280;69200;53.612;-2.416;2023-11-22T12:46:51;100921.44;;;9.63;100.00